EDT,Max TemperatureF,Mean TemperatureF,Min TemperatureF,Max Dew PointF,MeanDew PointF,Min DewpointF,Max Humidity, Mean Humidity, Min Humidity, Max Sea Level PressureIn, Mean Sea Level PressureIn, Min Sea Level PressureIn, Max VisibilityMiles, Mean VisibilityMiles, Min VisibilityMiles, Max Wind SpeedMPH, Mean Wind SpeedMPH, Max Gust SpeedMPH,PrecipitationIn, CloudCover, Events, WindDirDegrees
2013-8-1,87,81,75,75,73,70,94,84,74,30.04,30.00,29.97,10,9,0,21,6,25,0.74,4,Fog-Rain-Thunderstorm,235
2013-8-2,88,82,75,76,74,72,94,77,59,30.05,30.01,29.96,10,10,10,17,9,23,0.00,0,,185
2013-8-3,92,84,76,78,75,73,94,75,56,30.04,30.01,29.98,10,10,8,14,5,18,T,3,Rain-Thunderstorm,221
2013-8-4,93,85,77,76,74,72,94,75,56,30.03,29.99,29.94,10,10,9,13,6,20,0.00,0,,265
2013-8-5,88,83,77,77,75,71,85,77,68,30.01,29.98,29.95,10,10,10,18,9,24,0.00,3,,78
2013-8-6,87,84,80,76,74,72,85,77,68,30.03,29.99,29.94,10,10,10,15,10,20,0.00,3,,115
2013-8-7,86,83,79,74,72,70,79,70,61,30.06,30.01,29.98,10,10,10,13,9,18,0.00,3,,99
2013-8-8,89,85,80,77,76,75,85,77,68,30.08,30.02,29.98,10,10,10,14,8,18,0.00,2,,136
2013-8-9,89,85,81,75,74,73,85,74,63,30.12,30.07,30.01,10,10,10,15,8,23,0.00,2,,149
2013-8-10,90,84,78,76,75,70,91,73,55,30.16,30.12,30.09,10,10,10,14,7,18,0.00,1,,171
2013-8-11,91,85,79,79,75,73,91,75,59,30.18,30.13,30.08,10,10,10,15,7,20,0.00,0,Thunderstorm,192
2013-8-12,94,87,79,79,75,72,85,69,52,30.13,30.06,30.01,10,10,10,14,7,20,T,1,Thunderstorm,198
2013-8-13,96,87,78,78,75,70,91,69,46,30.04,29.98,29.90,10,10,10,14,8,20,T,1,Thunderstorm,225
2013-8-14,93,83,72,77,73,68,93,71,49,30.02,29.95,29.87,10,8,0,20,8,26,1.79,4,Fog-Rain-Thunderstorm,232
2013-8-15,88,81,73,78,74,70,94,81,68,30.07,29.99,29.95,10,7,0,13,5,24,2.40,4,Fog-Rain-Thunderstorm,72
2013-8-16,87,80,73,77,73,71,100,85,70,30.08,30.02,29.95,10,9,2,21,4,29,0.27,5,Rain-Thunderstorm,205
2013-8-17,85,79,73,77,74,72,94,80,65,30.14,30.08,30.03,10,10,4,15,6,20,0.13,5,Rain-Thunderstorm,138
2013-8-18,88,81,74,77,74,71,94,82,70,30.16,30.12,30.09,10,10,10,15,9,25,0.00,2,Thunderstorm,90
2013-8-19,88,82,75,77,75,69,91,80,68,30.12,30.07,30.02,10,10,2,14,6,20,0.18,2,Rain-Thunderstorm,139
2013-8-20,88,81,73,77,74,71,94,81,68,30.15,30.10,30.04,10,10,2,14,7,,0.00,1,Rain,109
2013-8-21,88,83,78,78,75,70,85,77,68,30.21,30.16,30.12,10,9,1,23,7,30,0.18,3,Rain-Thunderstorm,99
2013-8-22,87,80,73,77,74,66,91,78,65,30.16,30.11,30.05,10,8,1,16,4,23,0.94,3,Rain-Thunderstorm,123
2013-8-23,86,80,74,76,74,73,100,85,70,30.07,30.04,30.02,10,10,10,12,4,15,T,2,Rain-Thunderstorm,67
2013-8-24,85,80,74,76,73,70,94,78,61,30.17,30.12,30.04,10,9,2,20,6,25,0.15,4,Rain-Thunderstorm,48
2013-8-25,84,80,75,73,71,67,94,81,67,30.24,30.20,30.16,10,9,2,22,14,29,0.18,7,Rain-Thunderstorm,45
2013-8-26,84,78,71,74,72,69,94,82,69,30.22,30.16,30.12,10,8,1,18,9,23,0.94,7,Rain,29
2013-8-27,85,79,72,72,68,64,93,72,51,30.13,30.08,30.04,10,10,10,14,5,,0.00,4,,97
2013-8-28,87,80,72,71,69,66,93,72,50,30.07,30.03,29.98,10,10,10,13,5,17,0.00,1,,190
2013-8-29,93,83,73,75,71,69,93,71,49,30.02,29.96,29.90,10,10,8,14,7,22,0.00,1,,242
2013-8-30,90,83,76,79,75,66,85,74,62,29.98,29.94,29.90,10,8,5,16,7,22,0.00,3,Thunderstorm,99
2013-8-31,88,82,75,77,75,72,94,81,68,29.98,29.94,29.89,10,9,5,12,5,15,0.00,1,,140